createdAt,value
2022-09-16T00:00:51.694Z,81.62
2022-09-16T00:03:22.432Z,77.80
2022-09-16T00:05:51.954Z,77.64
2022-09-16T00:08:22.543Z,76.55
2022-09-16T00:10:50.965Z,76.08
2022-09-16T00:13:19.700Z,76.07
2022-09-16T00:15:51.901Z,74.57
2022-09-16T00:18:26.156Z,75.19
2022-09-16T00:20:56.113Z,74.79
2022-09-16T00:23:27.587Z,76.44
2022-09-16T00:25:56.599Z,79.09
2022-09-16T00:28:25.287Z,80.24
2022-09-16T00:30:53.678Z,81.61
2022-09-16T00:33:21.910Z,83.00
2022-09-16T00:35:50.163Z,85.01
2022-09-16T00:38:18.270Z,87.44
2022-09-16T00:40:49.284Z,88.80
2022-09-16T00:43:19.547Z,89.72
2022-09-16T00:45:52.046Z,90.10
2022-09-16T00:48:26.113Z,90.65
2022-09-16T00:50:57.265Z,91.23
2022-09-16T00:53:37.474Z,91.26
2022-09-16T00:56:14.727Z,90.79
2022-09-16T00:58:58.498Z,91.74
2022-09-16T01:01:29.508Z,91.26
2022-09-16T01:04:01.847Z,91.09
2022-09-16T01:06:38.139Z,91.42
2022-09-16T01:09:10.605Z,90.45
2022-09-16T01:11:56.714Z,91.32
2022-09-16T01:14:45.572Z,90.51
2022-09-16T01:17:21.313Z,89.53
2022-09-16T01:20:07.008Z,89.26
2022-09-16T01:23:02.301Z,89.33
2022-09-16T01:25:47.306Z,88.86
2022-09-16T01:28:57.326Z,88.43
2022-09-16T01:31:30.252Z,86.77
2022-09-16T01:34:03.094Z,86.33
2022-09-16T01:36:38.993Z,86.72
2022-09-16T01:39:19.987Z,85.83
2022-09-16T01:42:00.294Z,84.64
2022-09-16T01:44:33.582Z,85.29
2022-09-16T01:47:05.231Z,84.70
2022-09-16T01:49:42.095Z,84.78
2022-09-16T01:52:18.599Z,84.37
2022-09-16T01:54:50.054Z,83.62
2022-09-16T01:57:20.576Z,83.55
2022-09-16T01:59:52.219Z,84.03
2022-09-16T02:02:23.726Z,85.99
2022-09-16T02:04:55.321Z,86.09
2022-09-16T02:07:28.008Z,85.44
2022-09-16T02:09:59.107Z,85.07
2022-09-16T02:12:31.468Z,84.80
2022-09-16T02:15:04.632Z,84.55
2022-09-16T02:17:37.190Z,84.27
2022-09-16T02:20:09.645Z,84.14
2022-09-16T02:22:39.700Z,83.33
2022-09-16T02:25:09.049Z,83.67
2022-09-16T02:27:38.090Z,84.86
2022-09-16T02:30:08.693Z,84.38
2022-09-16T02:32:39.587Z,84.88
2022-09-16T02:35:10.083Z,84.42
2022-09-16T02:37:42.177Z,85.18
2022-09-16T02:40:13.833Z,84.93
2022-09-16T02:42:42.049Z,84.41
2022-09-16T02:45:11.071Z,84.91
2022-09-16T02:47:48.358Z,84.20
2022-09-16T02:50:19.332Z,83.51
2022-09-16T02:52:51.120Z,83.01
2022-09-16T02:55:24.807Z,83.64
2022-09-16T02:57:52.994Z,81.77
2022-09-16T03:00:21.152Z,82.54
2022-09-16T03:02:50.738Z,83.00
2022-09-16T03:05:18.929Z,82.03
2022-09-16T03:07:47.045Z,81.23
2022-09-16T03:10:15.454Z,82.41
2022-09-16T03:12:52.223Z,81.87
2022-09-16T03:15:29.932Z,81.86
2022-09-16T03:18:10.363Z,82.26
2022-09-16T03:20:43.179Z,82.80
2022-09-16T03:23:18.326Z,82.94
2022-09-16T03:25:52.526Z,83.07
2022-09-16T03:28:24.246Z,82.88
2022-09-16T03:30:59.637Z,84.10
2022-09-16T03:33:34.757Z,83.00
2022-09-16T03:36:06.392Z,84.76
2022-09-16T03:38:35.629Z,84.50
2022-09-16T03:41:04.987Z,84.98
2022-09-16T03:43:33.212Z,85.39
2022-09-16T03:46:01.405Z,85.10
2022-09-16T03:48:30.887Z,86.12
2022-09-16T03:50:58.971Z,86.35
2022-09-16T03:53:27.172Z,85.71
2022-09-16T03:55:55.305Z,86.95
2022-09-16T03:58:23.380Z,87.58
2022-09-16T04:00:51.973Z,87.03
2022-09-16T04:03:20.078Z,87.71
2022-09-16T04:05:53.776Z,86.82
2022-09-16T04:08:22.013Z,87.51
2022-09-16T04:10:55.453Z,87.10
2022-09-16T04:13:24.146Z,87.34
2022-09-16T04:15:52.731Z,86.85
2022-09-16T04:18:20.920Z,87.00
2022-09-16T04:20:50.574Z,86.62
2022-09-16T04:23:18.779Z,87.14
2022-09-16T04:25:55.315Z,85.67
2022-09-16T04:28:23.534Z,88.06
2022-09-16T04:30:52.076Z,87.25
2022-09-16T04:33:20.301Z,87.76
2022-09-16T04:35:48.509Z,87.38
2022-09-16T04:38:17.894Z,86.58
2022-09-16T04:40:46.015Z,86.04
2022-09-16T04:43:15.155Z,85.95
2022-09-16T04:45:43.532Z,87.17
2022-09-16T04:48:11.689Z,85.99
2022-09-16T04:50:39.757Z,86.05
2022-09-16T04:53:07.825Z,85.00
2022-09-16T04:55:37.530Z,85.26
2022-09-16T04:58:05.866Z,84.44
2022-09-16T05:00:34.014Z,84.81
2022-09-16T05:03:02.288Z,82.92
2022-09-16T05:05:30.501Z,83.50
2022-09-16T05:07:58.674Z,82.22
2022-09-16T05:10:28.749Z,80.84
2022-09-16T05:12:58.269Z,81.27
2022-09-16T05:15:26.603Z,82.42
2022-09-16T05:17:55.117Z,81.12
2022-09-16T05:20:23.881Z,81.72
2022-09-16T05:22:52.336Z,80.92
2022-09-16T05:25:20.414Z,80.94
2022-09-16T05:27:50.776Z,81.40
2022-09-16T05:30:25.776Z,80.40
2022-09-16T05:32:55.373Z,80.51
2022-09-16T05:35:23.511Z,79.78
2022-09-16T05:37:51.741Z,79.70
2022-09-16T05:40:23.175Z,78.92
2022-09-16T05:42:51.374Z,78.96
2022-09-16T05:45:25.669Z,78.78
2022-09-16T05:47:56.012Z,78.71
2022-09-16T05:50:24.278Z,78.24
2022-09-16T05:52:52.469Z,77.13
2022-09-16T05:55:20.544Z,77.24
2022-09-16T05:57:48.843Z,76.79
2022-09-16T06:00:17.592Z,76.25
2022-09-16T06:02:49.234Z,75.42
2022-09-16T06:05:17.796Z,74.60
2022-09-16T06:07:45.854Z,74.58
2022-09-16T06:10:14.167Z,73.25
2022-09-16T06:12:42.398Z,73.11
2022-09-16T06:15:11.375Z,73.16
2022-09-16T06:17:39.547Z,72.78
2022-09-16T06:20:14.167Z,72.43
2022-09-16T06:22:42.548Z,72.98
2022-09-16T06:25:10.706Z,73.39
2022-09-16T06:27:38.967Z,72.62
2022-09-16T06:30:10.725Z,72.85
2022-09-16T06:32:38.892Z,72.00
2022-09-16T06:35:10.397Z,73.04
2022-09-16T06:37:38.629Z,72.92
2022-09-16T06:40:08.242Z,72.34
2022-09-16T06:42:36.803Z,73.10
2022-09-16T06:45:05.674Z,73.30
2022-09-16T06:47:34.337Z,72.82
2022-09-16T06:50:03.122Z,72.04
2022-09-16T06:52:33.097Z,71.98
2022-09-16T06:55:01.412Z,71.91
2022-09-16T06:57:29.613Z,72.03
2022-09-16T06:59:57.766Z,71.66
2022-09-16T07:02:26.767Z,71.99
2022-09-16T07:04:55.304Z,71.28
2022-09-16T07:07:23.501Z,70.96
2022-09-16T07:09:53.024Z,68.16
2022-09-16T07:12:21.156Z,69.04
2022-09-16T07:14:49.271Z,68.51
2022-09-16T07:17:17.522Z,69.14
2022-09-16T07:19:45.657Z,68.45
2022-09-16T07:22:13.932Z,67.96
2022-09-16T07:24:42.079Z,67.38
2022-09-16T07:27:11.631Z,67.30
2022-09-16T07:29:39.706Z,66.98
2022-09-16T07:32:08.662Z,66.83
2022-09-16T07:34:36.790Z,66.88
2022-09-16T07:37:05.010Z,67.00
2022-09-16T07:39:33.183Z,66.13
2022-09-16T07:42:05.838Z,67.41
2022-09-16T07:44:35.790Z,67.44
2022-09-16T07:47:04.016Z,67.56
2022-09-16T07:49:32.124Z,66.81
2022-09-16T07:52:00.410Z,66.26
2022-09-16T07:54:28.785Z,67.49
2022-09-16T07:56:56.975Z,67.94
2022-09-16T07:59:25.205Z,68.23
2022-09-16T08:01:54.856Z,68.07
2022-09-16T08:04:23.056Z,68.49
2022-09-16T08:06:51.213Z,68.98
2022-09-16T08:09:38.787Z,69.41
2022-09-16T08:12:11.165Z,68.13
2022-09-16T08:14:39.685Z,67.40
2022-09-16T08:17:09.324Z,66.63
2022-09-16T08:19:39.276Z,66.73
2022-09-16T08:22:07.367Z,65.76
2022-09-16T08:24:35.815Z,66.92
2022-09-16T08:27:03.984Z,67.97
2022-09-16T08:29:32.200Z,66.13
2022-09-16T08:32:00.386Z,65.16
2022-09-16T08:34:29.880Z,65.79
2022-09-16T08:36:58.101Z,65.35
2022-09-16T08:39:26.360Z,65.09
2022-09-16T08:42:06.747Z,65.62
2022-09-16T08:44:41.384Z,65.11
2022-09-16T08:47:14.605Z,64.04
2022-09-16T08:49:46.731Z,64.17
2022-09-16T08:52:26.439Z,63.71
2022-09-16T08:54:57.816Z,63.00
2022-09-16T08:57:28.973Z,63.42
2022-09-16T09:00:00.178Z,62.17
2022-09-16T09:05:30.364Z,61.24
2022-09-16T09:08:13.057Z,61.02
2022-09-16T09:10:44.683Z,59.93
2022-09-16T09:13:29.795Z,59.71
2022-09-16T09:16:01.277Z,58.88
2022-09-16T09:18:38.919Z,58.90
2022-09-16T09:21:20.506Z,58.73
2022-09-16T09:24:33.057Z,58.24
2022-09-16T09:27:07.360Z,57.48
2022-09-16T09:29:45.166Z,57.31
2022-09-16T09:32:21.419Z,58.15
2022-09-16T09:35:03.706Z,58.91
2022-09-16T09:37:45.434Z,59.25
2022-09-16T09:40:17.532Z,60.36
2022-09-16T09:42:49.661Z,60.16
2022-09-16T09:45:25.439Z,60.26
2022-09-16T09:48:00.300Z,59.38
2022-09-16T09:50:32.307Z,58.69
2022-09-16T09:53:12.422Z,58.26
2022-09-16T09:55:43.581Z,57.72
2022-09-16T09:58:25.155Z,57.78
2022-09-16T10:01:00.833Z,58.32
2022-09-16T10:03:33.314Z,59.92
2022-09-16T10:06:05.267Z,60.63
2022-09-16T10:08:39.430Z,61.83
2022-09-16T10:11:18.353Z,62.04
2022-09-16T10:13:52.712Z,62.94
2022-09-16T10:16:26.345Z,63.20
2022-09-16T10:18:59.301Z,64.90
2022-09-16T10:21:39.884Z,65.02
2022-09-16T10:24:28.852Z,64.90
2022-09-16T10:26:57.168Z,65.22
2022-09-16T10:29:26.050Z,66.54
2022-09-16T10:31:54.635Z,65.67
2022-09-16T10:34:29.751Z,67.05
2022-09-16T10:37:03.307Z,67.79
2022-09-16T10:39:34.398Z,68.02
2022-09-16T10:42:04.014Z,67.75
2022-09-16T10:44:34.434Z,69.30
2022-09-16T10:47:05.661Z,68.81
2022-09-16T10:49:40.105Z,69.35
2022-09-16T10:52:10.349Z,70.46
2022-09-16T10:54:41.410Z,71.21
2022-09-16T10:57:22.493Z,71.67
2022-09-16T10:59:58.438Z,71.65
2022-09-16T11:02:40.965Z,70.96
2022-09-16T11:05:14.557Z,70.75
2022-09-16T11:07:46.534Z,70.55
2022-09-16T11:10:24.218Z,73.07
2022-09-16T11:13:12.782Z,71.88
2022-09-16T11:15:54.207Z,70.58
2022-09-16T11:18:35.185Z,69.76
2022-09-16T11:21:17.919Z,69.80
2022-09-16T11:23:57.963Z,69.65
2022-09-16T11:26:32.614Z,69.90
2022-09-16T11:29:15.332Z,70.35
2022-09-16T11:31:50.584Z,70.42
2022-09-16T11:34:31.317Z,69.38
2022-09-16T11:37:08.083Z,69.44
2022-09-16T11:39:58.313Z,68.73
2022-09-16T11:42:36.411Z,68.75
2022-09-16T11:45:19.599Z,70.18
2022-09-16T11:47:58.770Z,70.08
2022-09-16T11:50:36.892Z,69.59
2022-09-16T11:53:24.797Z,69.27
2022-09-16T11:55:58.860Z,69.74
2022-09-16T11:58:44.346Z,69.13
2022-09-16T12:01:23.103Z,69.12
2022-09-16T12:03:56.541Z,67.46
2022-09-16T12:06:26.378Z,67.47
2022-09-16T12:09:00.765Z,67.58
2022-09-16T12:11:33.310Z,66.55
2022-09-16T12:14:09.772Z,66.67
2022-09-16T12:16:42.003Z,66.92
2022-09-16T12:19:14.682Z,66.91
2022-09-16T12:21:48.268Z,66.89
2022-09-16T12:24:21.660Z,66.91
2022-09-16T12:26:55.846Z,66.09
2022-09-16T12:29:29.569Z,67.19
2022-09-16T12:32:02.787Z,67.34
2022-09-16T12:34:34.222Z,66.29
2022-09-16T12:37:07.913Z,65.60
2022-09-16T12:39:36.354Z,65.19
2022-09-16T12:42:31.376Z,64.57
2022-09-16T12:45:17.215Z,65.06
2022-09-16T12:48:05.558Z,65.02
2022-09-16T12:50:49.609Z,65.13
2022-09-16T12:53:52.541Z,65.25
2022-09-16T12:56:43.686Z,65.24
2022-09-16T12:59:32.790Z,64.44
2022-09-16T13:02:07.054Z,64.47
2022-09-16T13:04:39.929Z,63.10
2022-09-16T13:07:08.400Z,63.71
2022-09-16T13:09:38.958Z,63.50
2022-09-16T13:14:59.140Z,63.68
2022-09-16T13:17:33.326Z,63.51
2022-09-16T13:20:08.796Z,64.27
2022-09-16T13:22:39.705Z,63.54
2022-09-16T13:25:13.432Z,63.78
2022-09-16T13:27:42.496Z,63.08
2022-09-16T13:30:31.694Z,62.83
2022-09-16T13:33:03.822Z,62.51
2022-09-16T13:35:40.952Z,62.88
2022-09-16T13:38:38.773Z,62.97
2022-09-16T13:41:07.503Z,63.85
2022-09-16T13:43:37.889Z,62.91
2022-09-16T13:46:08.766Z,62.83
2022-09-16T13:48:42.097Z,62.98
2022-09-16T13:51:17.471Z,62.73
2022-09-16T13:53:47.751Z,62.64
2022-09-16T13:56:42.951Z,62.26
2022-09-16T13:59:23.505Z,62.10
2022-09-16T14:02:00.300Z,60.96
2022-09-16T14:04:42.430Z,60.47
2022-09-16T14:07:23.088Z,61.07
2022-09-16T14:09:55.876Z,60.49
2022-09-16T14:12:29.101Z,60.31
2022-09-16T14:14:58.952Z,59.90
2022-09-16T14:17:28.819Z,60.20
2022-09-16T14:20:00.474Z,59.91
2022-09-16T14:22:30.223Z,59.98
2022-09-16T14:25:06.795Z,59.13
2022-09-16T14:27:41.237Z,59.87
2022-09-16T14:30:16.926Z,60.13
2022-09-16T14:32:45.265Z,59.67
2022-09-16T14:35:18.841Z,59.89
2022-09-16T14:37:49.191Z,59.19
2022-09-16T14:40:20.307Z,59.31
2022-09-16T14:42:50.619Z,58.96
2022-09-16T14:45:19.271Z,58.57
2022-09-16T14:47:51.704Z,58.66
2022-09-16T14:50:24.325Z,58.62
2022-09-16T14:52:57.574Z,58.57
2022-09-16T14:55:30.203Z,59.29
2022-09-16T14:57:59.067Z,58.98
2022-09-16T15:00:29.595Z,58.67
2022-09-16T15:03:01.621Z,58.65
2022-09-16T15:05:34.854Z,59.05
2022-09-16T15:08:14.119Z,58.88
2022-09-16T15:10:53.963Z,58.79
2022-09-16T15:13:24.466Z,58.61
2022-09-16T15:15:56.042Z,58.04
2022-09-16T15:18:28.632Z,58.24
2022-09-16T15:21:06.944Z,58.54
2022-09-16T15:23:36.086Z,59.09
2022-09-16T15:26:16.774Z,58.42
2022-09-16T15:28:53.652Z,58.99
2022-09-16T15:31:34.940Z,58.63
2022-09-16T15:34:05.803Z,58.67
2022-09-16T15:36:38.204Z,58.89
2022-09-16T15:39:07.614Z,58.83
2022-09-16T15:41:35.696Z,59.69
2022-09-16T15:44:10.042Z,59.50
2022-09-16T15:46:38.539Z,59.79
2022-09-16T15:49:14.693Z,59.72
2022-09-16T15:51:48.735Z,59.52
2022-09-16T15:54:19.625Z,60.04
2022-09-16T15:56:58.027Z,60.02
2022-09-16T15:59:29.411Z,59.46
2022-09-16T16:01:58.490Z,59.76
2022-09-16T16:04:29.131Z,59.67
2022-09-16T16:06:59.887Z,59.58
2022-09-16T16:09:42.661Z,59.98
2022-09-16T16:12:13.119Z,60.36
2022-09-16T16:14:42.036Z,60.32
2022-09-16T16:17:14.114Z,60.73
2022-09-16T16:19:43.368Z,60.71
2022-09-16T16:22:14.006Z,60.56
2022-09-16T16:24:42.483Z,60.32
2022-09-16T16:27:11.099Z,61.09
2022-09-16T16:29:39.454Z,60.97
2022-09-16T16:32:09.781Z,61.53
2022-09-16T16:34:39.367Z,62.17
2022-09-16T16:37:08.513Z,62.20
2022-09-16T16:39:38.050Z,62.02
2022-09-16T16:42:06.904Z,61.75
2022-09-16T16:44:35.260Z,61.97
2022-09-16T16:47:03.389Z,62.33
2022-09-16T16:49:31.464Z,62.53
2022-09-16T16:51:59.550Z,62.38
2022-09-16T16:54:28.578Z,62.29
2022-09-16T16:56:58.347Z,63.74
2022-09-16T16:59:26.853Z,64.74
2022-09-16T17:01:56.462Z,66.60
2022-09-16T17:04:25.728Z,66.74
2022-09-16T17:07:14.537Z,67.35
2022-09-16T17:09:42.239Z,67.70
2022-09-16T17:12:13.039Z,69.09
2022-09-16T17:14:42.213Z,69.47
2022-09-16T17:17:10.330Z,70.54
2022-09-16T17:19:38.411Z,71.80
2022-09-16T17:22:06.571Z,73.55
2022-09-16T17:24:34.953Z,74.25
2022-09-16T17:27:03.741Z,75.73
2022-09-16T17:29:33.276Z,76.22
2022-09-16T17:32:03.347Z,76.15
2022-09-16T17:34:31.960Z,77.44
2022-09-16T17:37:00.206Z,77.19
2022-09-16T17:39:28.443Z,78.29
2022-09-16T17:41:57.549Z,75.82
2022-09-16T17:44:25.802Z,74.29
2022-09-16T17:46:55.443Z,73.42
2022-09-16T17:49:25.011Z,73.10
2022-09-16T17:51:54.406Z,72.00
2022-09-16T17:54:23.105Z,72.99
2022-09-16T17:56:51.460Z,73.79
2022-09-16T17:59:20.199Z,73.89
2022-09-16T18:01:49.245Z,73.81
2022-09-16T18:04:18.682Z,73.64
2022-09-16T18:06:47.895Z,73.21
2022-09-16T18:09:17.393Z,72.37
2022-09-16T18:11:46.289Z,71.70
2022-09-16T18:14:14.994Z,71.88
2022-09-16T18:16:43.722Z,72.77
2022-09-16T18:19:12.211Z,71.83
2022-09-16T18:21:41.658Z,71.74
2022-09-16T18:24:12.807Z,71.99
2022-09-16T18:26:42.173Z,71.71
2022-09-16T18:29:12.058Z,70.48
2022-09-16T18:31:41.492Z,71.90
2022-09-16T18:34:09.950Z,71.68
2022-09-16T18:36:39.416Z,72.14
2022-09-16T18:39:13.024Z,72.83
2022-09-16T18:41:42.561Z,73.89
2022-09-16T18:44:13.732Z,73.06
2022-09-16T18:46:42.169Z,73.27
2022-09-16T18:49:12.538Z,72.52
2022-09-16T18:51:41.871Z,72.00
2022-09-16T18:54:13.196Z,71.92
2022-09-16T18:56:42.259Z,72.01
2022-09-16T18:59:23.878Z,71.83
2022-09-16T19:01:53.671Z,72.17
2022-09-16T19:04:23.842Z,72.10
2022-09-16T19:06:53.869Z,73.32
2022-09-16T19:09:24.740Z,74.96
2022-09-16T19:11:55.063Z,76.08
2022-09-16T19:14:24.989Z,78.41
2022-09-16T19:16:53.445Z,78.94
2022-09-16T19:19:22.735Z,79.97
2022-09-16T19:21:51.018Z,79.74
2022-09-16T19:24:20.857Z,80.63
2022-09-16T19:26:52.000Z,79.68
2022-09-16T19:29:21.029Z,78.62
2022-09-16T19:31:51.997Z,78.78
2022-09-16T19:34:20.899Z,78.60
2022-09-16T19:36:49.127Z,78.18
2022-09-16T19:39:17.319Z,77.99
2022-09-16T19:41:45.738Z,78.00
2022-09-16T19:44:17.112Z,77.23
2022-09-16T19:46:47.094Z,77.89
2022-09-16T19:49:17.370Z,77.52
2022-09-16T19:51:45.627Z,77.16
2022-09-16T19:54:13.823Z,76.95
2022-09-16T19:56:44.223Z,77.49
2022-09-16T19:59:16.820Z,77.31
2022-09-16T20:01:45.187Z,77.29
2022-09-16T20:04:13.464Z,77.08
2022-09-16T20:06:43.177Z,76.90
2022-09-16T20:09:13.053Z,77.43
2022-09-16T20:11:43.223Z,76.95
2022-09-16T20:14:15.536Z,77.42
2022-09-16T20:16:45.189Z,77.08
2022-09-16T20:19:18.125Z,76.88
2022-09-16T20:21:46.386Z,76.43
2022-09-16T20:24:16.296Z,76.67
2022-09-16T20:26:44.545Z,76.42
2022-09-16T20:29:12.718Z,77.34
2022-09-16T20:31:40.928Z,77.32
2022-09-16T20:34:12.189Z,77.25
2022-09-16T20:36:40.864Z,76.59
2022-09-16T20:39:10.029Z,76.64
2022-09-16T20:41:39.902Z,76.83
2022-09-16T20:44:08.571Z,76.16
2022-09-16T20:46:38.798Z,77.18
2022-09-16T20:49:10.575Z,77.37
2022-09-16T20:51:40.158Z,76.62
2022-09-16T20:54:10.573Z,77.12
2022-09-16T20:56:39.921Z,76.56
2022-09-16T20:59:09.179Z,76.97
2022-09-16T21:01:38.232Z,76.30
2022-09-16T21:04:08.062Z,75.75
2022-09-16T21:06:37.288Z,74.89
2022-09-16T21:09:10.750Z,75.41
2022-09-16T21:11:40.917Z,74.39
2022-09-16T21:14:09.081Z,75.06
2022-09-16T21:16:38.930Z,75.52
2022-09-16T21:19:09.909Z,75.31
2022-09-16T21:21:39.865Z,74.89
2022-09-16T21:24:09.939Z,75.49
2022-09-16T21:26:40.294Z,75.32
2022-09-16T21:29:11.474Z,75.53
2022-09-16T21:31:40.808Z,74.23
2022-09-16T21:34:13.110Z,74.51
2022-09-16T21:36:41.652Z,74.30
2022-09-16T21:39:11.942Z,74.25
2022-09-16T21:41:39.962Z,74.50
2022-09-16T21:44:08.452Z,74.74
2022-09-16T21:46:41.497Z,73.56
2022-09-16T21:49:19.333Z,74.05
2022-09-16T21:51:47.475Z,73.47
2022-09-16T21:54:20.118Z,72.53
2022-09-16T21:56:49.530Z,72.64
2022-09-16T21:59:19.866Z,72.38
2022-09-16T22:01:49.649Z,72.61
2022-09-16T22:04:19.788Z,72.67
2022-09-16T22:06:48.801Z,71.86
2022-09-16T22:09:18.566Z,71.60
2022-09-16T22:11:46.718Z,71.87
2022-09-16T22:14:14.797Z,71.70
2022-09-16T22:16:42.966Z,70.90
2022-09-16T22:19:13.006Z,70.42
2022-09-16T22:21:42.743Z,70.31
2022-09-16T22:24:11.500Z,69.97
2022-09-16T22:26:41.432Z,69.60
2022-09-16T22:29:09.991Z,69.96
2022-09-16T22:31:39.265Z,69.32
2022-09-16T22:34:07.596Z,69.20
2022-09-16T22:36:37.091Z,69.07
2022-09-16T22:39:06.956Z,69.31
2022-09-16T22:41:35.272Z,70.01
2022-09-16T22:44:05.198Z,69.82
2022-09-16T22:46:35.697Z,69.80
2022-09-16T22:49:04.039Z,70.23
2022-09-16T22:51:32.503Z,70.30
2022-09-16T22:54:00.652Z,69.94
2022-09-16T22:56:32.173Z,70.59
2022-09-16T22:59:02.368Z,70.66
2022-09-16T23:01:33.941Z,71.00
2022-09-16T23:04:03.618Z,70.83
2022-09-16T23:06:33.119Z,69.94
2022-09-16T23:09:01.799Z,69.41
2022-09-16T23:11:31.074Z,70.78
2022-09-16T23:14:00.332Z,71.06
2022-09-16T23:16:32.976Z,70.56
2022-09-16T23:19:03.175Z,70.41
2022-09-16T23:21:31.988Z,70.30
2022-09-16T23:24:01.985Z,70.43
2022-09-16T23:26:31.641Z,71.66
2022-09-16T23:29:01.341Z,71.20
2022-09-16T23:31:30.580Z,71.30
2022-09-16T23:34:00.733Z,71.14
2022-09-16T23:36:29.845Z,71.36
2022-09-16T23:39:00.578Z,72.16
2022-09-16T23:41:29.217Z,72.27
2022-09-16T23:43:57.783Z,71.98
2022-09-16T23:46:27.297Z,72.39
2022-09-16T23:48:55.371Z,71.88
2022-09-16T23:51:28.417Z,71.63
2022-09-16T23:53:57.738Z,72.31
2022-09-16T23:56:26.550Z,72.11
2022-09-16T23:58:55.531Z,72.22
